createdAt,value
2022-11-16T00:03:05.156Z,71.75
2022-11-16T00:08:08.180Z,72.40
2022-11-16T00:13:11.194Z,72.21
2022-11-16T00:18:14.183Z,72.09
2022-11-16T00:23:17.950Z,71.85
2022-11-16T00:28:21.026Z,71.96
2022-11-16T00:33:24.018Z,72.30
2022-11-16T00:38:27.278Z,72.37
2022-11-16T00:43:30.759Z,72.77
2022-11-16T00:48:34.163Z,72.93
2022-11-16T00:53:37.492Z,73.10
2022-11-16T00:58:40.475Z,72.64
2022-11-16T01:03:46.160Z,72.42
2022-11-16T01:08:49.291Z,72.54
2022-11-16T01:13:52.755Z,72.81
2022-11-16T01:18:56.122Z,72.81
2022-11-16T01:23:59.120Z,72.77
2022-11-16T01:29:02.370Z,72.79
2022-11-16T01:34:09.342Z,72.89
2022-11-16T01:39:13.621Z,72.84
2022-11-16T01:44:32.547Z,72.67
2022-11-16T01:49:51.710Z,73.02
2022-11-16T01:54:57.695Z,72.98
2022-11-16T02:00:06.962Z,73.05
2022-11-16T02:05:33.760Z,73.32
2022-11-16T02:11:18.302Z,73.23
2022-11-16T02:16:43.388Z,73.47
2022-11-16T02:21:58.011Z,73.04
2022-11-16T02:27:14.443Z,73.21
2022-11-16T02:32:39.925Z,73.05
2022-11-16T02:38:02.003Z,72.99
2022-11-16T02:43:11.152Z,72.79
2022-11-16T02:48:22.728Z,72.83
2022-11-16T02:53:26.118Z,73.11
2022-11-16T02:58:30.131Z,72.88
2022-11-16T03:03:50.031Z,73.00
2022-11-16T03:09:02.303Z,72.91
2022-11-16T03:14:12.101Z,72.93
2022-11-16T03:19:21.868Z,72.90
2022-11-16T03:24:25.636Z,72.85
2022-11-16T03:29:54.589Z,73.03
2022-11-16T03:35:05.313Z,73.37
2022-11-16T03:40:11.660Z,73.35
2022-11-16T03:45:17.124Z,73.95
2022-11-16T03:50:20.248Z,73.65
2022-11-16T03:55:23.413Z,73.58
2022-11-16T04:00:26.739Z,74.30
2022-11-16T04:05:48.075Z,73.89
2022-11-16T04:11:10.078Z,74.40
2022-11-16T04:16:31.634Z,74.18
2022-11-16T04:21:58.221Z,74.12
2022-11-16T04:27:28.189Z,74.28
2022-11-16T04:32:49.680Z,73.69
2022-11-16T04:37:53.616Z,73.55
2022-11-16T04:43:06.528Z,73.97
2022-11-16T04:48:13.223Z,73.91
2022-11-16T04:53:16.856Z,74.26
2022-11-16T04:58:22.835Z,74.36
2022-11-16T05:03:26.327Z,74.48
2022-11-16T05:08:29.324Z,74.61
2022-11-16T05:13:32.562Z,74.32
2022-11-16T05:18:37.250Z,74.11
2022-11-16T05:24:00.095Z,74.52
2022-11-16T05:29:05.360Z,74.63
2022-11-16T05:34:09.603Z,74.22
2022-11-16T05:39:13.021Z,73.81
2022-11-16T05:44:17.397Z,73.99
2022-11-16T05:49:21.345Z,73.79
2022-11-16T05:54:26.300Z,73.76
2022-11-16T05:59:30.217Z,73.79
2022-11-16T06:04:34.734Z,73.56
2022-11-16T06:09:37.786Z,74.12
2022-11-16T06:14:49.275Z,73.91
2022-11-16T06:19:52.591Z,73.80
2022-11-16T06:24:55.663Z,73.37
2022-11-16T06:29:58.904Z,73.74
2022-11-16T06:35:02.490Z,73.32
2022-11-16T06:40:06.673Z,73.49
2022-11-16T06:45:12.233Z,73.46
2022-11-16T06:50:21.331Z,73.51
2022-11-16T06:55:24.889Z,73.58
2022-11-16T07:00:28.467Z,73.35
2022-11-16T07:05:33.320Z,73.81
2022-11-16T07:10:38.268Z,73.23
2022-11-16T07:15:41.984Z,73.24
2022-11-16T07:20:45.586Z,72.85
2022-11-16T07:25:49.069Z,73.05
2022-11-16T07:31:06.217Z,72.88
2022-11-16T07:36:14.592Z,73.20
2022-11-16T07:41:19.733Z,73.30
2022-11-16T07:46:45.963Z,73.52
2022-11-16T07:51:50.734Z,73.23
2022-11-16T07:57:09.901Z,72.75
2022-11-16T08:02:15.372Z,72.81
2022-11-16T08:07:20.157Z,72.74
2022-11-16T08:12:27.634Z,72.25
2022-11-16T08:17:30.882Z,72.17
2022-11-16T08:22:34.234Z,71.87
2022-11-16T08:27:38.145Z,71.84
2022-11-16T08:32:43.529Z,71.98
2022-11-16T08:43:25.622Z,71.65
2022-11-16T08:48:29.405Z,71.79
2022-11-16T08:53:33.730Z,71.98
2022-11-16T08:58:36.873Z,71.62
2022-11-16T09:03:40.881Z,71.58
2022-11-16T09:08:46.076Z,71.61
2022-11-16T09:13:51.205Z,72.06
2022-11-16T09:18:54.949Z,72.29
2022-11-16T09:23:59.031Z,72.07
2022-11-16T09:29:04.458Z,71.65
2022-11-16T09:34:08.278Z,71.87
2022-11-16T09:39:30.029Z,72.06
2022-11-16T09:44:45.349Z,71.88
2022-11-16T09:50:02.897Z,72.22
2022-11-16T09:55:20.823Z,72.07
2022-11-16T10:00:24.110Z,72.39
2022-11-16T10:05:39.155Z,72.17
2022-11-16T10:10:52.902Z,72.15
2022-11-16T10:16:14.847Z,72.04
2022-11-16T10:21:38.662Z,72.23
2022-11-16T10:26:41.900Z,72.65
2022-11-16T10:31:58.431Z,72.08
2022-11-16T10:37:04.040Z,72.32
2022-11-16T10:42:13.559Z,71.88
2022-11-16T10:47:22.495Z,71.64
2022-11-16T10:52:25.956Z,71.84
2022-11-16T10:58:02.684Z,71.67
2022-11-16T11:03:06.221Z,71.72
2022-11-16T11:08:12.754Z,71.87
2022-11-16T11:13:26.632Z,71.75
2022-11-16T11:18:30.280Z,72.18
2022-11-16T11:23:49.285Z,72.12
2022-11-16T11:28:52.309Z,72.16
2022-11-16T11:34:00.434Z,72.17
2022-11-16T11:39:25.618Z,71.94
2022-11-16T11:44:37.062Z,72.29
2022-11-16T11:49:50.036Z,72.44
2022-11-16T11:54:55.857Z,72.47
2022-11-16T11:59:58.785Z,72.61
2022-11-16T12:05:39.114Z,72.74
2022-11-16T12:10:46.583Z,72.62
2022-11-16T12:15:57.883Z,72.39
2022-11-16T12:21:48.215Z,72.46
2022-11-16T12:27:16.072Z,72.37
2022-11-16T12:32:31.351Z,72.29
2022-11-16T12:37:40.676Z,72.54
2022-11-16T12:43:05.280Z,72.26
2022-11-16T12:48:36.939Z,73.96
2022-11-16T12:54:13.550Z,72.54
2022-11-16T12:59:22.553Z,71.99
2022-11-16T13:04:32.699Z,71.65
2022-11-16T13:09:39.371Z,71.71
2022-11-16T13:14:46.446Z,71.84
2022-11-16T13:20:28.244Z,71.73
2022-11-16T13:25:46.427Z,72.19
2022-11-16T13:30:49.374Z,72.08
2022-11-16T13:35:52.451Z,71.89
2022-11-16T13:41:32.002Z,72.10
2022-11-16T13:46:56.927Z,72.09
2022-11-16T13:52:21.943Z,71.95
2022-11-16T13:57:29.762Z,71.84
2022-11-16T14:02:41.620Z,71.87
2022-11-16T14:07:49.904Z,71.82
2022-11-16T14:12:56.305Z,72.14
2022-11-16T14:18:08.763Z,72.24
2022-11-16T14:23:34.971Z,72.91
2022-11-16T14:28:51.189Z,71.97
2022-11-16T14:33:57.436Z,71.63
2022-11-16T14:39:24.093Z,71.67
2022-11-16T14:44:31.715Z,71.86
2022-11-16T14:49:37.692Z,72.01
2022-11-16T14:54:58.086Z,71.79
2022-11-16T15:00:18.874Z,71.88
2022-11-16T15:05:43.697Z,72.00
2022-11-16T15:10:52.196Z,71.67
2022-11-16T15:16:17.714Z,71.70
2022-11-16T15:21:22.787Z,71.74
2022-11-16T15:26:25.803Z,72.13
2022-11-16T15:31:28.801Z,72.38
2022-11-16T15:36:38.855Z,72.56
2022-11-16T15:41:43.090Z,72.48
2022-11-16T15:46:50.268Z,72.01
2022-11-16T15:51:53.249Z,71.82
2022-11-16T15:57:04.721Z,71.94
2022-11-16T16:02:18.413Z,71.73
2022-11-16T16:07:42.496Z,71.94
2022-11-16T16:12:53.747Z,71.98
2022-11-16T16:17:58.969Z,72.37
2022-11-16T16:23:07.645Z,71.77
2022-11-16T16:28:11.948Z,71.47
2022-11-16T16:33:19.890Z,71.47
2022-11-16T16:38:23.252Z,71.42
2022-11-16T16:43:27.354Z,71.53
2022-11-16T16:48:30.538Z,71.53
2022-11-16T16:53:33.864Z,71.41
2022-11-16T16:58:36.943Z,71.59
2022-11-16T17:03:40.247Z,71.52
2022-11-16T17:08:43.249Z,71.49
2022-11-16T17:13:46.243Z,71.13
2022-11-16T17:18:55.048Z,71.06
2022-11-16T17:23:58.306Z,71.42
2022-11-16T17:29:01.606Z,75.81
2022-11-16T17:34:07.287Z,71.79
2022-11-16T17:39:12.856Z,70.52
2022-11-16T17:44:21.641Z,70.27
2022-11-16T17:49:25.255Z,70.33
2022-11-16T17:54:28.397Z,70.47
2022-11-16T17:59:31.343Z,70.01
2022-11-16T18:04:34.338Z,70.22
2022-11-16T18:09:37.435Z,71.66
2022-11-16T18:14:42.388Z,70.56
2022-11-16T18:19:45.560Z,70.42
2022-11-16T18:24:50.808Z,70.58
2022-11-16T18:29:53.760Z,70.52
2022-11-16T18:34:56.703Z,70.82
2022-11-16T18:39:59.617Z,70.28
2022-11-16T18:45:02.582Z,70.49
2022-11-16T18:50:16.344Z,70.32
2022-11-16T18:55:22.150Z,70.88
2022-11-16T19:00:25.259Z,70.72
2022-11-16T19:05:32.409Z,70.39
2022-11-16T19:10:37.650Z,70.35
2022-11-16T19:15:42.337Z,70.05
2022-11-16T19:20:45.809Z,70.05
2022-11-16T19:26:01.615Z,69.87
2022-11-16T19:31:09.844Z,72.13
2022-11-16T19:36:19.748Z,70.06
2022-11-16T19:41:23.824Z,69.79
2022-11-16T19:46:29.371Z,69.88
2022-11-16T19:51:34.001Z,70.16
2022-11-16T19:56:37.078Z,70.38
2022-11-16T20:01:40.957Z,70.07
2022-11-16T20:06:45.760Z,71.13
2022-11-16T20:11:49.687Z,70.40
2022-11-16T20:16:53.625Z,70.29
2022-11-16T20:22:00.043Z,70.42
2022-11-16T20:27:03.553Z,70.55
2022-11-16T20:32:07.037Z,70.68
2022-11-16T20:37:11.011Z,70.79
2022-11-16T20:42:14.567Z,70.73
2022-11-16T20:47:18.884Z,70.80
2022-11-16T20:52:22.046Z,71.02
2022-11-16T20:57:25.106Z,70.80
2022-11-16T21:02:29.065Z,70.57
2022-11-16T21:07:33.258Z,70.56
2022-11-16T21:12:55.826Z,70.70
2022-11-16T21:17:59.338Z,70.81
2022-11-16T21:23:03.617Z,70.93
2022-11-16T21:28:07.480Z,71.13
2022-11-16T21:33:11.325Z,71.25
2022-11-16T21:38:14.934Z,71.24
2022-11-16T21:43:18.822Z,71.10
2022-11-16T21:48:22.286Z,70.75
2022-11-16T21:53:26.556Z,70.75
2022-11-16T21:58:30.174Z,70.72
2022-11-16T22:03:35.830Z,70.56
2022-11-16T22:08:41.259Z,70.90
2022-11-16T22:13:44.625Z,71.11
2022-11-16T22:18:47.658Z,71.24
2022-11-16T22:23:50.740Z,71.04
2022-11-16T22:28:53.894Z,70.96
2022-11-16T22:33:56.852Z,70.62
2022-11-16T22:39:00.798Z,70.70
2022-11-16T22:44:04.148Z,70.28
2022-11-16T22:49:07.111Z,70.27
2022-11-16T22:54:11.579Z,70.30
2022-11-16T22:59:14.646Z,70.14
2022-11-16T23:04:17.625Z,70.10
2022-11-16T23:09:20.879Z,70.22
2022-11-16T23:14:42.651Z,70.28
2022-11-16T23:20:04.510Z,70.07
2022-11-16T23:25:29.567Z,69.96
2022-11-16T23:30:33.743Z,69.96
2022-11-16T23:35:36.899Z,70.04
2022-11-16T23:40:40.150Z,70.22
2022-11-16T23:45:43.979Z,69.98
2022-11-16T23:50:47.125Z,69.99
2022-11-16T23:55:50.072Z,69.99
